Vernon, Oklahoma
Current Conditions -  °F | °C
As of 11:53 PM on Saturday 25 Oct 2014 (Local Time) from KMLC Reporting Station
Clear Clear  
Wind Chill: 21°   Ceiling: Unl
Heat Index: 21°   Visibility: 10mi
Dew Point: 17°   Wind: 5mph
Humidity: 76%   Direction: 210°SSW
Pressure: 30.03"   Gusts: NA
Location:  35.2158°N, 95.8817°W
Report Text: KMLC 260453Z AUTO 21004KT 10SM CLR 21/17 A3003 RMK AO2 SLP158 T02110167
Loading
Personal Weather Stations






























Interactive Weather Map
Tropical Storm Tracking
New forecast layout! Learn more

10-Day Weather Forecast

Advertisements
Track Severe Weather on mobile